sensor_id;sensor_type;location;lat;lon;timestamp;P1;durP1;ratioP1;P2;durP2;ratioP2
9906;SDS011;4992;51.628;6.664;2023-08-17T00:01:39;2.83;;;1.13;;
9906;SDS011;4992;51.628;6.664;2023-08-17T00:04:06;4.18;;;0.88;;
9906;SDS011;4992;51.628;6.664;2023-08-17T00:06:32;2.05;;;1.10;;
9906;SDS011;4992;51.628;6.664;2023-08-17T00:08:58;2.53;;;1.40;;
9906;SDS011;4992;51.628;6.664;2023-08-17T00:11:24;5.28;;;1.50;;
9906;SDS011;4992;51.628;6.664;2023-08-17T00:13:50;3.60;;;1.98;;
9906;SDS011;4992;51.628;6.664;2023-08-17T00:16:16;4.32;;;1.70;;
9906;SDS011;4992;51.628;6.664;2023-08-17T00:18:42;8.55;;;2.45;;
9906;SDS011;4992;51.628;6.664;2023-08-17T00:21:09;7.07;;;2.47;;
9906;SDS011;4992;51.628;6.664;2023-08-17T00:23:35;12.07;;;3.70;;
9906;SDS011;4992;51.628;6.664;2023-08-17T00:26:01;17.88;;;3.80;;
9906;SDS011;4992;51.628;6.664;2023-08-17T00:28:27;19.50;;;4.00;;
9906;SDS011;4992;51.628;6.664;2023-08-17T00:30:53;9.18;;;3.35;;
9906;SDS011;4992;51.628;6.664;2023-08-17T00:33:19;14.25;;;3.70;;
9906;SDS011;4992;51.628;6.664;2023-08-17T00:35:45;4.70;;;3.20;;
9906;SDS011;4992;51.628;6.664;2023-08-17T00:38:11;5.63;;;2.65;;
9906;SDS011;4992;51.628;6.664;2023-08-17T00:40:37;5.75;;;2.65;;
9906;SDS011;4992;51.628;6.664;2023-08-17T00:43:03;4.93;;;3.08;;
9906;SDS011;4992;51.628;6.664;2023-08-17T00:45:30;5.30;;;3.63;;
9906;SDS011;4992;51.628;6.664;2023-08-17T00:47:56;10.10;;;3.78;;
9906;SDS011;4992;51.628;6.664;2023-08-17T00:50:24;4.03;;;3.63;;
9906;SDS011;4992;51.628;6.664;2023-08-17T00:52:51;4.55;;;3.95;;
9906;SDS011;4992;51.628;6.664;2023-08-17T00:55:17;8.05;;;3.83;;
9906;SDS011;4992;51.628;6.664;2023-08-17T00:57:43;7.57;;;4.20;;
9906;SDS011;4992;51.628;6.664;2023-08-17T01:00:13;6.60;;;4.25;;
9906;SDS011;4992;51.628;6.664;2023-08-17T01:02:42;5.32;;;3.85;;
9906;SDS011;4992;51.628;6.664;2023-08-17T01:05:08;6.82;;;3.53;;
9906;SDS011;4992;51.628;6.664;2023-08-17T01:07:34;4.75;;;3.70;;
9906;SDS011;4992;51.628;6.664;2023-08-17T01:10:02;6.15;;;3.63;;
9906;SDS011;4992;51.628;6.664;2023-08-17T01:12:32;5.95;;;3.88;;
9906;SDS011;4992;51.628;6.664;2023-08-17T01:17:37;5.53;;;4.25;;
9906;SDS011;4992;51.628;6.664;2023-08-17T01:20:06;8.80;;;3.90;;
9906;SDS011;4992;51.628;6.664;2023-08-17T01:22:34;9.32;;;3.58;;
9906;SDS011;4992;51.628;6.664;2023-08-17T01:25:01;5.70;;;4.25;;
9906;SDS011;4992;51.628;6.664;2023-08-17T01:27:36;5.80;;;3.92;;
9906;SDS011;4992;51.628;6.664;2023-08-17T01:30:03;4.20;;;3.80;;
9906;SDS011;4992;51.628;6.664;2023-08-17T01:32:30;6.53;;;4.30;;
9906;SDS011;4992;51.628;6.664;2023-08-17T01:35:09;8.35;;;4.30;;
9906;SDS011;4992;51.628;6.664;2023-08-17T01:37:37;9.25;;;4.90;;
9906;SDS011;4992;51.628;6.664;2023-08-17T01:40:03;4.93;;;4.43;;
9906;SDS011;4992;51.628;6.664;2023-08-17T01:42:30;7.15;;;4.50;;
9906;SDS011;4992;51.628;6.664;2023-08-17T01:44:56;7.18;;;3.90;;
9906;SDS011;4992;51.628;6.664;2023-08-17T01:47:22;6.60;;;4.50;;
9906;SDS011;4992;51.628;6.664;2023-08-17T01:49:49;5.78;;;4.80;;
9906;SDS011;4992;51.628;6.664;2023-08-17T01:52:15;7.75;;;4.38;;
9906;SDS011;4992;51.628;6.664;2023-08-17T01:54:41;8.30;;;4.00;;
9906;SDS011;4992;51.628;6.664;2023-08-17T01:57:07;5.95;;;4.05;;
9906;SDS011;4992;51.628;6.664;2023-08-17T01:59:33;8.13;;;4.50;;
9906;SDS011;4992;51.628;6.664;2023-08-17T02:01:59;7.38;;;4.35;;
9906;SDS011;4992;51.628;6.664;2023-08-17T02:04:25;4.15;;;3.85;;
9906;SDS011;4992;51.628;6.664;2023-08-17T02:06:51;9.57;;;4.47;;
9906;SDS011;4992;51.628;6.664;2023-08-17T02:09:17;5.93;;;4.28;;
9906;SDS011;4992;51.628;6.664;2023-08-17T02:11:43;6.60;;;4.30;;
9906;SDS011;4992;51.628;6.664;2023-08-17T02:14:09;8.98;;;5.00;;
9906;SDS011;4992;51.628;6.664;2023-08-17T02:16:34;6.00;;;4.72;;
9906;SDS011;4992;51.628;6.664;2023-08-17T02:19:00;6.47;;;5.05;;
9906;SDS011;4992;51.628;6.664;2023-08-17T02:21:26;8.27;;;4.78;;
9906;SDS011;4992;51.628;6.664;2023-08-17T02:23:52;7.18;;;4.95;;
9906;SDS011;4992;51.628;6.664;2023-08-17T02:26:18;8.55;;;4.97;;
9906;SDS011;4992;51.628;6.664;2023-08-17T02:28:44;8.15;;;5.03;;
9906;SDS011;4992;51.628;6.664;2023-08-17T02:31:10;5.63;;;5.07;;
9906;SDS011;4992;51.628;6.664;2023-08-17T02:33:36;7.60;;;5.50;;
9906;SDS011;4992;51.628;6.664;2023-08-17T02:36:02;7.90;;;5.50;;
9906;SDS011;4992;51.628;6.664;2023-08-17T02:38:28;6.70;;;5.22;;
9906;SDS011;4992;51.628;6.664;2023-08-17T02:40:54;7.72;;;5.88;;
9906;SDS011;4992;51.628;6.664;2023-08-17T02:43:20;10.25;;;5.80;;
9906;SDS011;4992;51.628;6.664;2023-08-17T02:45:51;11.43;;;5.72;;
9906;SDS011;4992;51.628;6.664;2023-08-17T02:48:35;8.48;;;6.05;;
9906;SDS011;4992;51.628;6.664;2023-08-17T02:51:01;9.60;;;6.03;;
9906;SDS011;4992;51.628;6.664;2023-08-17T02:53:27;9.38;;;6.00;;
9906;SDS011;4992;51.628;6.664;2023-08-17T02:55:53;10.57;;;6.50;;
9906;SDS011;4992;51.628;6.664;2023-08-17T02:58:19;10.00;;;6.28;;
9906;SDS011;4992;51.628;6.664;2023-08-17T03:00:45;10.15;;;6.47;;
9906;SDS011;4992;51.628;6.664;2023-08-17T03:03:11;8.38;;;6.25;;
9906;SDS011;4992;51.628;6.664;2023-08-17T03:05:37;7.88;;;5.38;;
9906;SDS011;4992;51.628;6.664;2023-08-17T03:08:03;8.60;;;6.47;;
9906;SDS011;4992;51.628;6.664;2023-08-17T03:10:30;10.73;;;5.85;;
9906;SDS011;4992;51.628;6.664;2023-08-17T03:12:57;10.38;;;5.68;;
9906;SDS011;4992;51.628;6.664;2023-08-17T03:15:22;8.18;;;5.68;;
9906;SDS011;4992;51.628;6.664;2023-08-17T03:17:48;7.07;;;5.03;;
9906;SDS011;4992;51.628;6.664;2023-08-17T03:20:14;7.25;;;5.43;;
9906;SDS011;4992;51.628;6.664;2023-08-17T03:22:40;10.00;;;5.63;;
9906;SDS011;4992;51.628;6.664;2023-08-17T03:25:06;6.15;;;5.55;;
9906;SDS011;4992;51.628;6.664;2023-08-17T03:27:32;6.28;;;5.22;;
9906;SDS011;4992;51.628;6.664;2023-08-17T03:29:59;10.82;;;6.15;;
9906;SDS011;4992;51.628;6.664;2023-08-17T03:32:25;9.23;;;5.68;;
9906;SDS011;4992;51.628;6.664;2023-08-17T03:34:51;9.20;;;5.70;;
9906;SDS011;4992;51.628;6.664;2023-08-17T03:37:17;14.35;;;6.18;;
9906;SDS011;4992;51.628;6.664;2023-08-17T03:39:43;8.50;;;5.68;;
9906;SDS011;4992;51.628;6.664;2023-08-17T03:42:09;10.52;;;6.00;;
9906;SDS011;4992;51.628;6.664;2023-08-17T03:44:34;7.40;;;6.00;;
9906;SDS011;4992;51.628;6.664;2023-08-17T03:47:00;11.20;;;6.13;;
9906;SDS011;4992;51.628;6.664;2023-08-17T03:49:26;9.73;;;6.65;;
9906;SDS011;4992;51.628;6.664;2023-08-17T03:51:53;9.70;;;5.60;;
9906;SDS011;4992;51.628;6.664;2023-08-17T03:54:19;8.18;;;6.25;;
9906;SDS011;4992;51.628;6.664;2023-08-17T03:56:45;7.88;;;6.63;;
9906;SDS011;4992;51.628;6.664;2023-08-17T03:59:11;10.25;;;6.80;;
9906;SDS011;4992;51.628;6.664;2023-08-17T04:01:37;8.25;;;6.40;;
9906;SDS011;4992;51.628;6.664;2023-08-17T04:04:03;9.25;;;6.00;;
9906;SDS011;4992;51.628;6.664;2023-08-17T04:06:29;7.05;;;5.78;;
9906;SDS011;4992;51.628;6.664;2023-08-17T04:08:55;8.02;;;6.05;;
9906;SDS011;4992;51.628;6.664;2023-08-17T04:11:21;11.02;;;6.38;;
9906;SDS011;4992;51.628;6.664;2023-08-17T04:13:47;8.38;;;6.85;;
9906;SDS011;4992;51.628;6.664;2023-08-17T04:16:13;8.73;;;6.28;;
9906;SDS011;4992;51.628;6.664;2023-08-17T04:18:39;10.07;;;6.85;;
9906;SDS011;4992;51.628;6.664;2023-08-17T04:21:05;11.65;;;6.55;;
9906;SDS011;4992;51.628;6.664;2023-08-17T04:23:31;7.93;;;5.65;;
9906;SDS011;4992;51.628;6.664;2023-08-17T04:25:57;12.30;;;6.45;;
9906;SDS011;4992;51.628;6.664;2023-08-17T04:28:23;12.75;;;6.45;;
9906;SDS011;4992;51.628;6.664;2023-08-17T04:30:49;8.00;;;6.63;;
9906;SDS011;4992;51.628;6.664;2023-08-17T04:33:15;12.32;;;6.82;;
9906;SDS011;4992;51.628;6.664;2023-08-17T04:35:41;9.75;;;6.22;;
9906;SDS011;4992;51.628;6.664;2023-08-17T04:38:07;10.57;;;6.32;;
9906;SDS011;4992;51.628;6.664;2023-08-17T04:40:33;7.85;;;6.45;;
9906;SDS011;4992;51.628;6.664;2023-08-17T04:42:59;9.10;;;6.60;;
9906;SDS011;4992;51.628;6.664;2023-08-17T04:45:25;10.52;;;6.25;;
9906;SDS011;4992;51.628;6.664;2023-08-17T04:47:51;11.10;;;7.35;;
9906;SDS011;4992;51.628;6.664;2023-08-17T04:50:17;9.25;;;7.10;;
9906;SDS011;4992;51.628;6.664;2023-08-17T04:52:43;7.90;;;6.47;;
9906;SDS011;4992;51.628;6.664;2023-08-17T04:55:09;9.73;;;6.70;;
9906;SDS011;4992;51.628;6.664;2023-08-17T04:57:35;9.00;;;6.38;;
9906;SDS011;4992;51.628;6.664;2023-08-17T05:00:01;10.30;;;7.00;;
9906;SDS011;4992;51.628;6.664;2023-08-17T05:02:28;11.48;;;6.57;;
9906;SDS011;4992;51.628;6.664;2023-08-17T05:04:54;15.35;;;7.47;;
9906;SDS011;4992;51.628;6.664;2023-08-17T05:07:20;9.55;;;7.47;;
9906;SDS011;4992;51.628;6.664;2023-08-17T05:09:46;14.45;;;6.97;;
9906;SDS011;4992;51.628;6.664;2023-08-17T05:12:12;10.60;;;6.97;;
9906;SDS011;4992;51.628;6.664;2023-08-17T05:14:38;8.50;;;7.15;;
9906;SDS011;4992;51.628;6.664;2023-08-17T05:17:04;9.93;;;7.75;;
9906;SDS011;4992;51.628;6.664;2023-08-17T05:19:30;9.85;;;6.70;;
9906;SDS011;4992;51.628;6.664;2023-08-17T05:21:57;11.63;;;7.75;;
9906;SDS011;4992;51.628;6.664;2023-08-17T05:24:23;9.93;;;7.22;;
9906;SDS011;4992;51.628;6.664;2023-08-17T05:26:49;11.00;;;6.88;;
9906;SDS011;4992;51.628;6.664;2023-08-17T05:29:15;17.05;;;8.15;;
9906;SDS011;4992;51.628;6.664;2023-08-17T05:31:41;11.23;;;7.18;;
9906;SDS011;4992;51.628;6.664;2023-08-17T05:34:07;12.73;;;7.82;;
9906;SDS011;4992;51.628;6.664;2023-08-17T05:36:33;8.15;;;6.82;;
9906;SDS011;4992;51.628;6.664;2023-08-17T05:38:59;20.17;;;8.65;;
9906;SDS011;4992;51.628;6.664;2023-08-17T05:41:25;11.73;;;8.50;;
9906;SDS011;4992;51.628;6.664;2023-08-17T05:43:51;13.63;;;8.95;;
9906;SDS011;4992;51.628;6.664;2023-08-17T05:46:17;11.65;;;9.05;;
9906;SDS011;4992;51.628;6.664;2023-08-17T05:48:43;13.63;;;8.48;;
9906;SDS011;4992;51.628;6.664;2023-08-17T05:51:09;11.27;;;8.55;;
9906;SDS011;4992;51.628;6.664;2023-08-17T05:53:35;11.48;;;8.20;;
9906;SDS011;4992;51.628;6.664;2023-08-17T05:56:00;9.15;;;7.60;;
9906;SDS011;4992;51.628;6.664;2023-08-17T05:58:26;12.35;;;7.60;;
9906;SDS011;4992;51.628;6.664;2023-08-17T06:00:52;9.85;;;6.90;;
9906;SDS011;4992;51.628;6.664;2023-08-17T06:03:18;13.20;;;7.40;;
9906;SDS011;4992;51.628;6.664;2023-08-17T06:05:44;11.75;;;6.82;;
9906;SDS011;4992;51.628;6.664;2023-08-17T06:08:10;7.88;;;6.72;;
9906;SDS011;4992;51.628;6.664;2023-08-17T06:10:36;7.53;;;6.35;;
9906;SDS011;4992;51.628;6.664;2023-08-17T06:13:02;12.07;;;6.80;;
9906;SDS011;4992;51.628;6.664;2023-08-17T06:15:28;10.23;;;6.00;;
9906;SDS011;4992;51.628;6.664;2023-08-17T06:20:58;11.65;;;6.20;;
9906;SDS011;4992;51.628;6.664;2023-08-17T06:23:24;6.68;;;5.65;;
9906;SDS011;4992;51.628;6.664;2023-08-17T06:25:50;8.98;;;6.00;;
9906;SDS011;4992;51.628;6.664;2023-08-17T06:28:16;10.40;;;5.22;;
9906;SDS011;4992;51.628;6.664;2023-08-17T06:30:42;7.75;;;5.57;;
9906;SDS011;4992;51.628;6.664;2023-08-17T06:33:08;6.43;;;5.20;;
9906;SDS011;4992;51.628;6.664;2023-08-17T06:35:34;8.77;;;6.10;;
9906;SDS011;4992;51.628;6.664;2023-08-17T06:38:00;10.00;;;5.72;;
9906;SDS011;4992;51.628;6.664;2023-08-17T06:40:26;6.97;;;5.13;;
9906;SDS011;4992;51.628;6.664;2023-08-17T06:42:52;9.75;;;5.18;;
9906;SDS011;4992;51.628;6.664;2023-08-17T06:45:19;8.43;;;5.32;;
9906;SDS011;4992;51.628;6.664;2023-08-17T06:47:45;4.63;;;4.20;;
9906;SDS011;4992;51.628;6.664;2023-08-17T06:50:13;7.40;;;3.95;;
9906;SDS011;4992;51.628;6.664;2023-08-17T06:52:39;8.15;;;4.90;;
9906;SDS011;4992;51.628;6.664;2023-08-17T06:55:05;7.30;;;4.32;;
9906;SDS011;4992;51.628;6.664;2023-08-17T06:57:31;4.85;;;3.75;;
9906;SDS011;4992;51.628;6.664;2023-08-17T06:59:57;6.10;;;3.88;;
9906;SDS011;4992;51.628;6.664;2023-08-17T07:02:23;6.15;;;3.95;;
9906;SDS011;4992;51.628;6.664;2023-08-17T07:04:49;8.35;;;5.22;;
9906;SDS011;4992;51.628;6.664;2023-08-17T07:07:15;8.02;;;4.20;;
9906;SDS011;4992;51.628;6.664;2023-08-17T07:09:41;6.90;;;3.83;;
9906;SDS011;4992;51.628;6.664;2023-08-17T07:12:07;6.50;;;4.05;;
9906;SDS011;4992;51.628;6.664;2023-08-17T07:14:33;5.55;;;4.05;;
9906;SDS011;4992;51.628;6.664;2023-08-17T07:16:59;7.75;;;4.25;;
9906;SDS011;4992;51.628;6.664;2023-08-17T07:19:25;7.40;;;4.30;;
9906;SDS011;4992;51.628;6.664;2023-08-17T07:21:51;9.90;;;4.40;;
9906;SDS011;4992;51.628;6.664;2023-08-17T07:24:18;5.47;;;4.32;;
9906;SDS011;4992;51.628;6.664;2023-08-17T07:26:44;5.47;;;4.15;;
9906;SDS011;4992;51.628;6.664;2023-08-17T07:29:10;5.47;;;4.05;;
9906;SDS011;4992;51.628;6.664;2023-08-17T07:31:36;7.28;;;3.85;;
9906;SDS011;4992;51.628;6.664;2023-08-17T07:34:03;7.05;;;4.20;;
9906;SDS011;4992;51.628;6.664;2023-08-17T07:36:30;13.00;;;10.13;;
9906;SDS011;4992;51.628;6.664;2023-08-17T07:38:56;6.65;;;4.60;;
9906;SDS011;4992;51.628;6.664;2023-08-17T07:41:22;6.72;;;5.10;;
9906;SDS011;4992;51.628;6.664;2023-08-17T07:43:48;8.82;;;4.90;;
9906;SDS011;4992;51.628;6.664;2023-08-17T07:46:14;6.85;;;4.78;;
9906;SDS011;4992;51.628;6.664;2023-08-17T07:48:40;7.05;;;4.82;;
9906;SDS011;4992;51.628;6.664;2023-08-17T07:51:06;7.78;;;4.63;;
9906;SDS011;4992;51.628;6.664;2023-08-17T07:53:32;8.18;;;4.78;;
9906;SDS011;4992;51.628;6.664;2023-08-17T07:55:58;6.72;;;3.97;;
9906;SDS011;4992;51.628;6.664;2023-08-17T07:58:24;8.25;;;4.18;;
9906;SDS011;4992;51.628;6.664;2023-08-17T08:00:50;8.23;;;4.75;;
9906;SDS011;4992;51.628;6.664;2023-08-17T08:03:16;9.10;;;4.78;;
9906;SDS011;4992;51.628;6.664;2023-08-17T08:05:42;7.95;;;4.75;;
9906;SDS011;4992;51.628;6.664;2023-08-17T08:08:08;15.48;;;5.95;;
9906;SDS011;4992;51.628;6.664;2023-08-17T08:10:34;11.55;;;5.63;;
9906;SDS011;4992;51.628;6.664;2023-08-17T08:13:00;8.20;;;4.85;;
9906;SDS011;4992;51.628;6.664;2023-08-17T08:15:26;8.95;;;5.05;;
9906;SDS011;4992;51.628;6.664;2023-08-17T08:17:52;8.55;;;5.50;;
9906;SDS011;4992;51.628;6.664;2023-08-17T08:20:18;7.00;;;5.22;;
9906;SDS011;4992;51.628;6.664;2023-08-17T08:22:44;12.75;;;5.43;;
9906;SDS011;4992;51.628;6.664;2023-08-17T08:25:10;7.45;;;5.07;;
9906;SDS011;4992;51.628;6.664;2023-08-17T08:27:36;12.60;;;5.82;;
9906;SDS011;4992;51.628;6.664;2023-08-17T08:30:02;12.27;;;5.50;;
9906;SDS011;4992;51.628;6.664;2023-08-17T08:32:27;7.80;;;5.55;;
9906;SDS011;4992;51.628;6.664;2023-08-17T08:34:53;10.27;;;6.15;;
9906;SDS011;4992;51.628;6.664;2023-08-17T08:37:19;6.95;;;4.88;;
9906;SDS011;4992;51.628;6.664;2023-08-17T08:39:49;9.18;;;5.35;;
9906;SDS011;4992;51.628;6.664;2023-08-17T08:42:19;8.85;;;5.60;;
9906;SDS011;4992;51.628;6.664;2023-08-17T08:44:45;9.90;;;5.60;;
9906;SDS011;4992;51.628;6.664;2023-08-17T08:47:12;7.88;;;5.63;;
9906;SDS011;4992;51.628;6.664;2023-08-17T08:49:38;6.63;;;5.15;;
9906;SDS011;4992;51.628;6.664;2023-08-17T08:52:05;9.43;;;5.85;;
9906;SDS011;4992;51.628;6.664;2023-08-17T08:54:32;7.60;;;5.22;;
9906;SDS011;4992;51.628;6.664;2023-08-17T08:57:04;12.75;;;6.70;;
9906;SDS011;4992;51.628;6.664;2023-08-17T08:59:33;12.23;;;6.85;;
9906;SDS011;4992;51.628;6.664;2023-08-17T09:01:59;9.65;;;6.20;;
9906;SDS011;4992;51.628;6.664;2023-08-17T09:04:26;7.15;;;5.68;;
9906;SDS011;4992;51.628;6.664;2023-08-17T09:06:52;12.43;;;6.10;;
9906;SDS011;4992;51.628;6.664;2023-08-17T09:09:19;9.30;;;6.10;;
9906;SDS011;4992;51.628;6.664;2023-08-17T09:11:45;10.90;;;6.68;;
9906;SDS011;4992;51.628;6.664;2023-08-17T09:14:11;9.60;;;6.53;;
9906;SDS011;4992;51.628;6.664;2023-08-17T09:16:37;10.05;;;6.35;;
9906;SDS011;4992;51.628;6.664;2023-08-17T09:19:03;11.73;;;6.65;;
9906;SDS011;4992;51.628;6.664;2023-08-17T09:21:31;10.18;;;6.25;;
9906;SDS011;4992;51.628;6.664;2023-08-17T09:23:57;10.60;;;6.03;;
9906;SDS011;4992;51.628;6.664;2023-08-17T09:26:23;11.25;;;6.57;;
9906;SDS011;4992;51.628;6.664;2023-08-17T09:28:49;9.90;;;5.55;;
9906;SDS011;4992;51.628;6.664;2023-08-17T09:31:16;9.60;;;5.63;;
9906;SDS011;4992;51.628;6.664;2023-08-17T09:33:42;8.93;;;5.82;;
9906;SDS011;4992;51.628;6.664;2023-08-17T09:36:09;8.18;;;6.22;;
9906;SDS011;4992;51.628;6.664;2023-08-17T09:38:36;10.95;;;6.05;;
9906;SDS011;4992;51.628;6.664;2023-08-17T09:41:03;10.30;;;6.22;;
9906;SDS011;4992;51.628;6.664;2023-08-17T09:43:31;7.38;;;5.38;;
9906;SDS011;4992;51.628;6.664;2023-08-17T09:45:58;11.32;;;6.03;;
9906;SDS011;4992;51.628;6.664;2023-08-17T09:48:26;9.13;;;5.70;;
9906;SDS011;4992;51.628;6.664;2023-08-17T09:50:53;12.82;;;6.25;;
9906;SDS011;4992;51.628;6.664;2023-08-17T09:53:21;11.23;;;6.00;;
9906;SDS011;4992;51.628;6.664;2023-08-17T09:55:47;10.10;;;6.53;;
9906;SDS011;4992;51.628;6.664;2023-08-17T09:58:13;12.43;;;5.95;;
9906;SDS011;4992;51.628;6.664;2023-08-17T10:00:46;9.80;;;6.10;;
9906;SDS011;4992;51.628;6.664;2023-08-17T10:03:13;8.52;;;6.38;;
9906;SDS011;4992;51.628;6.664;2023-08-17T10:05:40;10.23;;;6.18;;
9906;SDS011;4992;51.628;6.664;2023-08-17T10:08:06;9.07;;;6.03;;
9906;SDS011;4992;51.628;6.664;2023-08-17T10:10:34;12.13;;;6.95;;
9906;SDS011;4992;51.628;6.664;2023-08-17T10:13:05;10.88;;;6.03;;
9906;SDS011;4992;51.628;6.664;2023-08-17T10:15:33;8.38;;;6.20;;
9906;SDS011;4992;51.628;6.664;2023-08-17T10:18:02;8.45;;;6.53;;
9906;SDS011;4992;51.628;6.664;2023-08-17T10:20:34;8.27;;;6.45;;
9906;SDS011;4992;51.628;6.664;2023-08-17T10:25:28;8.57;;;5.97;;
9906;SDS011;4992;51.628;6.664;2023-08-17T10:27:54;12.50;;;6.47;;
9906;SDS011;4992;51.628;6.664;2023-08-17T10:30:20;8.15;;;5.88;;
9906;SDS011;4992;51.628;6.664;2023-08-17T10:32:46;6.10;;;5.50;;
9906;SDS011;4992;51.628;6.664;2023-08-17T10:35:13;7.35;;;5.95;;
9906;SDS011;4992;51.628;6.664;2023-08-17T10:37:40;6.95;;;6.30;;
9906;SDS011;4992;51.628;6.664;2023-08-17T10:40:06;9.88;;;6.10;;
9906;SDS011;4992;51.628;6.664;2023-08-17T10:42:33;9.27;;;6.25;;
9906;SDS011;4992;51.628;6.664;2023-08-17T10:45:00;10.23;;;5.93;;
9906;SDS011;4992;51.628;6.664;2023-08-17T10:49:57;9.45;;;6.55;;
9906;SDS011;4992;51.628;6.664;2023-08-17T10:52:27;8.65;;;6.50;;
9906;SDS011;4992;51.628;6.664;2023-08-17T10:54:54;10.75;;;8.55;;
9906;SDS011;4992;51.628;6.664;2023-08-17T10:57:24;9.10;;;7.13;;
9906;SDS011;4992;51.628;6.664;2023-08-17T11:02:38;8.05;;;6.60;;
9906;SDS011;4992;51.628;6.664;2023-08-17T11:05:04;7.75;;;6.00;;
9906;SDS011;4992;51.628;6.664;2023-08-17T11:07:40;6.68;;;5.97;;
9906;SDS011;4992;51.628;6.664;2023-08-17T11:10:39;8.68;;;6.20;;
9906;SDS011;4992;51.628;6.664;2023-08-17T11:12:58;7.70;;;6.28;;
9906;SDS011;4992;51.628;6.664;2023-08-17T11:15:37;8.27;;;6.28;;
9906;SDS011;4992;51.628;6.664;2023-08-17T11:18:05;9.25;;;6.82;;
9906;SDS011;4992;51.628;6.664;2023-08-17T11:20:31;10.13;;;6.18;;
9906;SDS011;4992;51.628;6.664;2023-08-17T11:22:58;7.55;;;6.03;;
9906;SDS011;4992;51.628;6.664;2023-08-17T11:25:25;7.80;;;5.97;;
9906;SDS011;4992;51.628;6.664;2023-08-17T11:27:52;9.95;;;6.40;;
9906;SDS011;4992;51.628;6.664;2023-08-17T11:30:18;9.73;;;6.15;;
9906;SDS011;4992;51.628;6.664;2023-08-17T11:32:45;7.72;;;6.47;;
9906;SDS011;4992;51.628;6.664;2023-08-17T11:35:11;9.88;;;6.45;;
9906;SDS011;4992;51.628;6.664;2023-08-17T11:37:37;8.77;;;6.63;;
9906;SDS011;4992;51.628;6.664;2023-08-17T11:40:03;7.97;;;5.90;;
9906;SDS011;4992;51.628;6.664;2023-08-17T11:42:29;7.82;;;6.65;;
9906;SDS011;4992;51.628;6.664;2023-08-17T11:44:55;8.98;;;6.43;;
9906;SDS011;4992;51.628;6.664;2023-08-17T11:47:21;6.82;;;6.05;;
9906;SDS011;4992;51.628;6.664;2023-08-17T11:49:48;9.77;;;6.80;;
9906;SDS011;4992;51.628;6.664;2023-08-17T11:52:14;6.95;;;6.25;;
9906;SDS011;4992;51.628;6.664;2023-08-17T11:54:41;7.25;;;6.43;;
9906;SDS011;4992;51.628;6.664;2023-08-17T11:57:07;6.78;;;6.07;;
9906;SDS011;4992;51.628;6.664;2023-08-17T11:59:33;9.38;;;6.35;;
9906;SDS011;4992;51.628;6.664;2023-08-17T12:01:59;8.50;;;5.68;;
9906;SDS011;4992;51.628;6.664;2023-08-17T12:04:26;8.50;;;6.55;;
9906;SDS011;4992;51.628;6.664;2023-08-17T12:06:52;8.30;;;7.22;;
9906;SDS011;4992;51.628;6.664;2023-08-17T12:09:18;8.38;;;6.45;;
9906;SDS011;4992;51.628;6.664;2023-08-17T12:11:44;9.93;;;7.30;;
9906;SDS011;4992;51.628;6.664;2023-08-17T12:14:11;7.18;;;6.47;;
9906;SDS011;4992;51.628;6.664;2023-08-17T12:16:47;7.22;;;6.53;;
9906;SDS011;4992;51.628;6.664;2023-08-17T12:19:13;8.65;;;6.88;;
9906;SDS011;4992;51.628;6.664;2023-08-17T12:21:42;8.38;;;6.85;;
9906;SDS011;4992;51.628;6.664;2023-08-17T12:24:08;8.20;;;7.40;;
9906;SDS011;4992;51.628;6.664;2023-08-17T12:26:40;8.48;;;7.13;;
9906;SDS011;4992;51.628;6.664;2023-08-17T12:29:07;8.65;;;7.05;;
9906;SDS011;4992;51.628;6.664;2023-08-17T12:31:33;8.10;;;6.80;;
9906;SDS011;4992;51.628;6.664;2023-08-17T12:33:59;8.85;;;7.22;;
9906;SDS011;4992;51.628;6.664;2023-08-17T12:36:25;10.27;;;7.38;;
9906;SDS011;4992;51.628;6.664;2023-08-17T12:38:51;8.48;;;7.53;;
9906;SDS011;4992;51.628;6.664;2023-08-17T12:41:17;7.70;;;6.82;;
9906;SDS011;4992;51.628;6.664;2023-08-17T12:43:43;8.23;;;7.43;;
9906;SDS011;4992;51.628;6.664;2023-08-17T12:46:09;8.65;;;7.85;;
9906;SDS011;4992;51.628;6.664;2023-08-17T12:48:38;8.63;;;7.30;;
9906;SDS011;4992;51.628;6.664;2023-08-17T12:51:04;11.05;;;7.97;;
9906;SDS011;4992;51.628;6.664;2023-08-17T12:53:30;9.52;;;8.35;;
9906;SDS011;4992;51.628;6.664;2023-08-17T12:55:56;9.07;;;8.02;;
9906;SDS011;4992;51.628;6.664;2023-08-17T12:58:23;10.43;;;9.30;;
9906;SDS011;4992;51.628;6.664;2023-08-17T13:00:49;9.68;;;8.15;;
9906;SDS011;4992;51.628;6.664;2023-08-17T13:03:18;10.40;;;8.50;;
9906;SDS011;4992;51.628;6.664;2023-08-17T13:05:44;10.02;;;8.68;;
9906;SDS011;4992;51.628;6.664;2023-08-17T13:08:10;11.55;;;9.10;;
9906;SDS011;4992;51.628;6.664;2023-08-17T13:10:36;11.75;;;8.55;;
9906;SDS011;4992;51.628;6.664;2023-08-17T13:13:02;9.73;;;7.75;;
9906;SDS011;4992;51.628;6.664;2023-08-17T13:15:29;10.93;;;7.97;;
9906;SDS011;4992;51.628;6.664;2023-08-17T13:17:55;11.05;;;8.07;;
9906;SDS011;4992;51.628;6.664;2023-08-17T13:20:22;12.32;;;8.70;;
9906;SDS011;4992;51.628;6.664;2023-08-17T13:22:48;12.15;;;9.00;;
9906;SDS011;4992;51.628;6.664;2023-08-17T13:25:14;11.45;;;9.45;;
9906;SDS011;4992;51.628;6.664;2023-08-17T13:27:40;9.70;;;8.75;;
9906;SDS011;4992;51.628;6.664;2023-08-17T13:30:06;10.90;;;9.00;;
9906;SDS011;4992;51.628;6.664;2023-08-17T13:32:32;8.80;;;7.90;;
9906;SDS011;4992;51.628;6.664;2023-08-17T13:34:58;10.48;;;8.18;;
9906;SDS011;4992;51.628;6.664;2023-08-17T13:37:24;12.13;;;8.25;;
9906;SDS011;4992;51.628;6.664;2023-08-17T13:39:51;10.82;;;8.65;;
9906;SDS011;4992;51.628;6.664;2023-08-17T13:42:17;10.05;;;8.60;;
9906;SDS011;4992;51.628;6.664;2023-08-17T13:44:42;10.10;;;9.05;;
9906;SDS011;4992;51.628;6.664;2023-08-17T13:47:08;10.95;;;8.35;;
9906;SDS011;4992;51.628;6.664;2023-08-17T13:49:34;10.93;;;8.02;;
9906;SDS011;4992;51.628;6.664;2023-08-17T13:52:00;11.38;;;9.30;;
9906;SDS011;4992;51.628;6.664;2023-08-17T13:54:26;9.20;;;8.30;;
9906;SDS011;4992;51.628;6.664;2023-08-17T13:56:53;11.30;;;8.85;;
9906;SDS011;4992;51.628;6.664;2023-08-17T13:59:18;10.82;;;9.30;;
9906;SDS011;4992;51.628;6.664;2023-08-17T14:01:44;11.35;;;9.68;;
9906;SDS011;4992;51.628;6.664;2023-08-17T14:04:10;12.15;;;9.32;;
9906;SDS011;4992;51.628;6.664;2023-08-17T14:06:37;11.02;;;8.50;;
9906;SDS011;4992;51.628;6.664;2023-08-17T14:09:04;9.82;;;8.07;;
9906;SDS011;4992;51.628;6.664;2023-08-17T14:11:30;10.05;;;8.98;;
9906;SDS011;4992;51.628;6.664;2023-08-17T14:13:56;9.73;;;8.10;;
9906;SDS011;4992;51.628;6.664;2023-08-17T14:16:22;10.60;;;7.95;;
9906;SDS011;4992;51.628;6.664;2023-08-17T14:18:48;10.77;;;9.18;;
9906;SDS011;4992;51.628;6.664;2023-08-17T14:21:14;9.05;;;8.15;;
9906;SDS011;4992;51.628;6.664;2023-08-17T14:23:40;9.20;;;8.23;;
9906;SDS011;4992;51.628;6.664;2023-08-17T14:26:06;10.13;;;8.30;;
9906;SDS011;4992;51.628;6.664;2023-08-17T14:28:32;9.88;;;8.50;;
9906;SDS011;4992;51.628;6.664;2023-08-17T14:30:58;10.35;;;8.63;;
9906;SDS011;4992;51.628;6.664;2023-08-17T14:33:24;12.55;;;8.13;;
9906;SDS011;4992;51.628;6.664;2023-08-17T14:35:50;8.88;;;8.07;;
9906;SDS011;4992;51.628;6.664;2023-08-17T14:38:16;8.93;;;8.10;;
9906;SDS011;4992;51.628;6.664;2023-08-17T14:40:42;12.52;;;8.27;;
9906;SDS011;4992;51.628;6.664;2023-08-17T14:43:09;12.20;;;9.00;;
9906;SDS011;4992;51.628;6.664;2023-08-17T14:45:36;11.88;;;8.50;;
9906;SDS011;4992;51.628;6.664;2023-08-17T14:48:02;9.00;;;7.78;;
9906;SDS011;4992;51.628;6.664;2023-08-17T14:50:28;9.63;;;8.63;;
9906;SDS011;4992;51.628;6.664;2023-08-17T14:52:54;13.60;;;9.40;;
9906;SDS011;4992;51.628;6.664;2023-08-17T14:55:20;9.50;;;8.55;;
9906;SDS011;4992;51.628;6.664;2023-08-17T14:57:46;10.98;;;9.20;;
9906;SDS011;4992;51.628;6.664;2023-08-17T15:00:12;11.15;;;9.10;;
9906;SDS011;4992;51.628;6.664;2023-08-17T15:02:38;12.75;;;8.73;;
9906;SDS011;4992;51.628;6.664;2023-08-17T15:05:05;11.80;;;9.07;;
9906;SDS011;4992;51.628;6.664;2023-08-17T15:07:31;12.75;;;9.27;;
9906;SDS011;4992;51.628;6.664;2023-08-17T15:09:57;13.25;;;10.52;;
9906;SDS011;4992;51.628;6.664;2023-08-17T15:12:23;13.57;;;12.23;;
9906;SDS011;4992;51.628;6.664;2023-08-17T15:14:49;14.02;;;12.63;;
9906;SDS011;4992;51.628;6.664;2023-08-17T15:17:15;15.80;;;12.30;;
9906;SDS011;4992;51.628;6.664;2023-08-17T15:19:41;14.05;;;12.35;;